createdAt,value
2019-06-08T08:44:17.696Z,23.53
2019-06-08T08:46:43.437Z,23.57
2019-06-08T08:49:12.971Z,23.61
2019-06-08T08:51:37.654Z,23.64
2019-06-08T08:54:04.793Z,23.67
2019-06-08T08:56:28.034Z,23.68
2019-06-08T08:58:54.417Z,23.73
2019-06-08T09:01:20.542Z,23.74
2019-06-08T09:03:48.286Z,23.77
2019-06-08T09:06:11.523Z,23.78
2019-06-08T09:08:37.752Z,23.79
2019-06-08T09:11:03.949Z,23.84
2019-06-08T09:13:29.588Z,23.90
2019-06-08T09:15:55.839Z,23.91
2019-06-08T09:18:21.619Z,23.91
2019-06-08T09:20:47.968Z,23.94
2019-06-08T09:23:16.498Z,23.96
2019-06-08T09:25:40.680Z,23.97
2019-06-08T09:28:08.286Z,24.01
2019-06-08T09:30:31.711Z,24.03
2019-06-08T09:33:00.586Z,24.04
2019-06-08T09:35:24.408Z,24.03
2019-06-08T09:37:50.428Z,24.03
2019-06-08T09:40:16.492Z,24.02
2019-06-08T09:42:42.501Z,24.01
2019-06-08T09:45:08.944Z,24.00
2019-06-08T09:47:34.534Z,23.99
2019-06-08T09:50:03.369Z,23.98
2019-06-08T09:52:28.135Z,23.99
2019-06-08T09:54:54.109Z,23.99
2019-06-08T09:57:19.031Z,23.97
2019-06-08T09:59:44.629Z,23.97
2019-06-08T10:02:12.903Z,23.97
2019-06-08T10:04:38.676Z,23.96
2019-06-08T10:07:03.905Z,23.97
2019-06-08T10:09:28.653Z,23.96
2019-06-08T10:11:54.670Z,23.95
2019-06-08T10:14:20.696Z,23.95
2019-06-08T10:16:47.795Z,23.95
2019-06-08T10:19:12.709Z,23.94
2019-06-08T10:21:42.744Z,23.94
2019-06-08T10:24:07.028Z,23.94
2019-06-08T10:26:30.974Z,23.93
2019-06-08T10:29:00.276Z,23.91
2019-06-08T10:31:35.539Z,23.91
2019-06-08T10:33:49.135Z,23.90
2019-06-08T10:36:15.116Z,23.91
2019-06-08T10:38:41.402Z,23.90
2019-06-08T10:41:15.709Z,23.90
2019-06-08T10:43:33.233Z,23.89
2019-06-08T10:46:02.862Z,23.89
2019-06-08T10:48:27.528Z,23.89
2019-06-08T10:50:51.273Z,23.88
2019-06-08T10:53:17.270Z,23.88
2019-06-08T10:55:43.291Z,23.87
2019-06-08T10:58:11.282Z,23.86
2019-06-08T11:00:35.297Z,23.87
2019-06-08T11:03:03.242Z,23.86
2019-06-08T11:05:28.042Z,23.87
2019-06-08T11:07:53.368Z,23.86
2019-06-08T11:10:19.474Z,23.86
2019-06-08T11:12:45.434Z,23.86
2019-06-08T11:15:11.915Z,23.86
2019-06-08T11:17:37.896Z,23.86
2019-06-08T11:20:04.788Z,23.87
2019-06-08T11:22:29.585Z,23.87
2019-06-08T11:24:55.643Z,23.86
2019-06-08T11:27:21.638Z,23.86
2019-06-08T11:29:47.778Z,23.87
2019-06-08T11:32:13.713Z,23.88
2019-06-08T11:34:39.712Z,23.88
2019-06-08T11:37:09.397Z,23.88
2019-06-08T11:39:31.776Z,23.88
2019-06-08T11:41:58.808Z,23.89
2019-06-08T11:44:23.803Z,23.90
2019-06-08T11:46:49.912Z,23.91
2019-06-08T11:49:18.613Z,23.91
2019-06-08T11:51:41.916Z,23.91
2019-06-08T11:54:25.534Z,23.91
2019-06-08T11:56:33.935Z,23.91
2019-06-08T11:59:01.070Z,23.91
2019-06-08T12:01:27.672Z,23.90
2019-06-08T12:03:52.007Z,23.90
2019-06-08T12:06:18.482Z,23.90
2019-06-08T12:08:43.978Z,23.91
2019-06-08T12:11:16.308Z,23.90
2019-06-08T12:13:36.006Z,23.90
2019-06-08T12:16:03.066Z,23.90
2019-06-08T12:18:28.075Z,23.90
2019-06-08T12:20:54.087Z,23.89
2019-06-08T12:23:20.100Z,23.90
2019-06-08T12:25:46.110Z,23.89
2019-06-08T12:28:12.599Z,23.89
2019-06-08T12:30:38.465Z,23.89
2019-06-08T12:33:04.888Z,23.89
2019-06-08T12:35:30.141Z,23.89
2019-06-08T12:37:58.086Z,23.88
2019-06-08T12:40:22.174Z,23.88
2019-06-08T12:42:48.174Z,23.88
2019-06-08T12:45:15.161Z,23.88
2019-06-08T12:47:40.289Z,23.87
2019-06-08T12:50:08.925Z,23.87
2019-06-08T12:52:32.476Z,23.87
2019-06-08T12:55:06.032Z,23.87
2019-06-08T12:57:24.488Z,23.87
2019-06-08T12:59:50.485Z,23.87
2019-06-08T13:02:22.027Z,23.87
2019-06-08T13:04:42.500Z,23.87
2019-06-08T13:07:10.115Z,23.86
2019-06-08T13:09:34.543Z,23.86
2019-06-08T13:12:00.573Z,23.86
2019-06-08T13:14:28.417Z,23.86
2019-06-08T13:16:53.198Z,23.85
2019-06-08T13:19:18.618Z,23.85
2019-06-08T13:21:44.618Z,23.85
2019-06-08T13:24:11.357Z,23.85
2019-06-08T13:26:36.676Z,23.85
2019-06-08T13:29:02.704Z,23.84
2019-06-08T13:31:29.017Z,23.84
2019-06-08T13:33:54.720Z,23.84
2019-06-08T13:36:25.865Z,23.84
2019-06-08T13:38:48.022Z,23.84
2019-06-08T13:41:12.982Z,23.84
2019-06-08T13:43:40.557Z,23.84
2019-06-08T13:46:04.871Z,23.84
2019-06-08T13:48:30.878Z,23.84
2019-06-08T13:50:59.030Z,23.83
2019-06-08T13:53:27.298Z,23.83
2019-06-08T13:55:56.109Z,23.83
2019-06-08T13:58:15.271Z,23.83
2019-06-08T14:00:41.281Z,23.83
2019-06-08T14:03:08.470Z,23.83
2019-06-08T14:05:33.286Z,23.83
2019-06-08T14:07:59.319Z,23.83
2019-06-08T14:10:25.694Z,23.82
2019-06-08T14:12:51.341Z,23.82
2019-06-08T14:15:17.455Z,23.82
2019-06-08T14:17:43.374Z,23.83
2019-06-08T14:20:09.384Z,23.83
2019-06-08T14:22:35.387Z,23.83
2019-06-08T14:25:01.820Z,23.83
2019-06-08T14:27:32.879Z,23.83
2019-06-08T14:29:54.892Z,23.84
2019-06-08T14:32:22.363Z,23.84
2019-06-08T14:34:50.214Z,23.83
2019-06-08T14:37:15.053Z,23.84
2019-06-08T14:39:41.688Z,23.84
2019-06-08T14:42:24.902Z,23.85
2019-06-08T14:44:44.723Z,23.84
2019-06-08T14:47:10.832Z,23.85
2019-06-08T14:49:38.436Z,23.85
2019-06-08T14:52:02.858Z,23.86
2019-06-08T14:54:33.315Z,23.86
2019-06-08T14:56:54.920Z,23.85
2019-06-08T14:59:22.039Z,23.85
2019-06-08T15:01:48.730Z,23.85
2019-06-08T15:04:13.007Z,23.86
2019-06-08T15:06:39.014Z,23.87
2019-06-08T15:09:05.057Z,23.88
2019-06-08T15:11:34.761Z,23.88
2019-06-08T15:13:58.505Z,23.90
2019-06-08T15:16:23.628Z,23.90
2019-06-08T15:18:49.074Z,23.91
2019-06-08T15:21:15.071Z,23.91
2019-06-08T15:23:41.242Z,23.92
2019-06-08T15:26:20.516Z,23.92
2019-06-08T15:28:35.871Z,23.92
2019-06-08T15:31:00.067Z,23.93
2019-06-08T15:33:26.969Z,23.94
2019-06-08T15:35:51.410Z,23.95
2019-06-08T15:38:17.511Z,23.95
2019-06-08T15:40:43.494Z,23.94
2019-06-08T15:43:09.528Z,23.94
2019-06-08T15:45:35.538Z,23.94
2019-06-08T15:48:01.558Z,23.95
2019-06-08T15:53:40.378Z,23.97
2019-06-08T15:56:09.359Z,23.97
2019-06-08T15:58:55.045Z,23.97
2019-06-08T16:01:23.329Z,23.97
2019-06-08T16:03:49.324Z,23.98
2019-06-08T16:09:18.624Z,24.00
2019-06-08T16:11:44.655Z,24.00
2019-06-08T16:14:12.796Z,24.00
2019-06-08T16:17:04.837Z,24.01
2019-06-08T16:22:22.854Z,24.02
2019-06-08T16:24:49.566Z,24.03
2019-06-08T16:27:20.765Z,24.04
2019-06-08T16:29:47.463Z,24.03
2019-06-08T16:32:35.399Z,24.03
2019-06-08T16:37:42.538Z,24.03
2019-06-08T16:40:15.724Z,24.04
2019-06-08T16:42:42.402Z,24.06
2019-06-08T16:45:10.098Z,24.07
2019-06-08T16:47:37.631Z,24.07
2019-06-08T16:50:06.710Z,24.07
2019-06-08T16:52:36.895Z,24.07
2019-06-08T16:55:13.745Z,24.08
2019-06-08T16:57:41.308Z,24.08
2019-06-08T17:00:30.313Z,24.08
2019-06-08T17:02:52.420Z,24.09
2019-06-08T17:05:35.572Z,24.10
2019-06-08T17:10:50.555Z,24.10
2019-06-08T17:13:19.735Z,24.11
2019-06-08T17:15:52.935Z,24.10
2019-06-08T17:18:21.314Z,24.12
2019-06-08T17:20:49.479Z,24.13
2019-06-08T17:23:15.925Z,24.14
2019-06-08T17:25:42.700Z,24.15
2019-06-08T17:28:11.643Z,24.15
2019-06-08T17:30:37.668Z,24.16
2019-06-08T17:33:14.322Z,24.18
2019-06-08T17:35:40.391Z,24.18
2019-06-08T17:38:06.327Z,24.18
2019-06-08T17:40:33.841Z,24.19
2019-06-08T17:42:58.495Z,24.19
2019-06-08T17:45:27.027Z,24.19
2019-06-08T17:47:53.050Z,24.18
2019-06-08T17:50:19.052Z,24.18
2019-06-08T17:52:46.027Z,24.19
2019-06-08T17:55:13.785Z,24.17
2019-06-08T17:57:48.279Z,24.17
2019-06-08T18:00:12.288Z,24.15
2019-06-08T18:02:42.045Z,24.15
2019-06-08T18:05:10.278Z,24.15
2019-06-08T18:07:44.292Z,24.14
2019-06-08T18:10:09.505Z,24.15
2019-06-08T18:12:40.717Z,24.15
2019-06-08T18:15:07.678Z,24.16
2019-06-08T18:17:33.969Z,24.14
2019-06-08T18:19:58.815Z,24.15
2019-06-08T18:22:27.033Z,24.14
2019-06-08T18:24:51.100Z,24.15
2019-06-08T18:27:18.066Z,24.15
2019-06-08T18:29:44.394Z,24.15
2019-06-08T18:32:09.152Z,24.14
2019-06-08T18:34:37.373Z,24.14
2019-06-08T18:37:01.421Z,24.13
2019-06-08T18:39:27.442Z,24.13
2019-06-08T18:41:53.456Z,24.13
2019-06-08T18:44:19.461Z,24.13
2019-06-08T18:46:45.514Z,24.13
2019-06-08T18:49:11.539Z,24.12
2019-06-08T18:51:38.221Z,24.14
2019-06-08T18:54:11.420Z,24.14
2019-06-08T18:56:30.572Z,24.15
2019-06-08T18:58:58.317Z,24.15
2019-06-08T19:01:23.738Z,24.15
2019-06-08T19:03:52.260Z,24.17
2019-06-08T19:06:14.668Z,24.16
2019-06-08T19:08:43.198Z,24.16
2019-06-08T19:11:08.424Z,24.15
2019-06-08T19:13:32.914Z,24.16
2019-06-08T19:15:59.855Z,24.18
2019-06-08T19:18:27.221Z,24.19
2019-06-08T19:20:53.515Z,24.18
2019-06-08T19:23:20.725Z,24.20
2019-06-08T19:25:46.736Z,24.21
2019-06-08T19:28:09.504Z,24.21
2019-06-08T19:30:37.900Z,24.23
2019-06-08T19:33:01.516Z,24.23
2019-06-08T19:35:27.553Z,24.22
2019-06-08T19:37:54.029Z,24.24
2019-06-08T19:40:19.540Z,24.24
2019-06-08T19:42:55.034Z,24.25
2019-06-08T19:45:11.585Z,24.25
2019-06-08T19:47:38.419Z,24.26
2019-06-08T19:50:03.599Z,24.27
2019-06-08T19:52:29.595Z,24.27
2019-06-08T19:54:57.922Z,24.28
2019-06-08T19:57:21.610Z,24.27
2019-06-08T19:59:47.677Z,24.28
2019-06-08T20:02:13.672Z,24.27
2019-06-08T20:04:40.646Z,24.28
2019-06-08T20:07:08.451Z,24.29
2019-06-08T20:09:31.703Z,24.29
2019-06-08T20:12:00.037Z,24.28
2019-06-08T20:14:23.742Z,24.29
2019-06-08T20:16:50.889Z,24.28
2019-06-08T20:19:17.594Z,24.27
2019-06-08T20:21:42.824Z,24.28
2019-06-08T20:24:10.495Z,24.27
2019-06-08T20:26:33.762Z,24.27
2019-06-08T20:29:12.269Z,24.28
2019-06-08T20:31:27.355Z,24.28
2019-06-08T20:33:52.218Z,24.28
2019-06-08T20:36:17.896Z,24.29
2019-06-08T20:38:44.738Z,24.28
2019-06-08T20:41:09.922Z,24.27
2019-06-08T20:43:38.150Z,24.27
2019-06-08T20:46:02.296Z,24.27
2019-06-08T20:48:28.404Z,24.28
2019-06-08T20:50:54.398Z,24.29
2019-06-08T20:53:20.416Z,24.28
2019-06-08T20:55:48.205Z,24.28
2019-06-08T20:58:12.423Z,24.28
2019-06-08T21:00:38.423Z,24.28
2019-06-08T21:03:04.412Z,24.28
2019-06-08T21:05:30.435Z,24.28
2019-06-08T21:07:58.851Z,24.28
2019-06-08T21:10:24.477Z,24.28
2019-06-08T21:12:50.855Z,24.29
2019-06-08T21:15:14.448Z,24.29
2019-06-08T21:17:40.441Z,24.28
2019-06-08T21:20:08.489Z,24.28
2019-06-08T21:22:32.470Z,24.28
2019-06-08T21:25:00.035Z,24.27
2019-06-08T21:27:24.516Z,24.27
2019-06-08T21:29:59.124Z,24.26
2019-06-08T21:32:17.705Z,24.26
2019-06-08T21:34:42.550Z,24.26
2019-06-08T21:37:09.159Z,24.25
2019-06-08T21:39:36.681Z,24.25
2019-06-08T21:42:02.990Z,24.23
2019-06-08T21:44:27.855Z,24.22
2019-06-08T21:46:53.397Z,24.22
2019-06-08T21:49:18.580Z,24.22
2019-06-08T21:51:46.945Z,24.22
2019-06-08T21:54:10.654Z,24.20
2019-06-08T21:56:37.059Z,24.19
2019-06-08T21:59:02.737Z,24.19
2019-06-08T22:01:28.734Z,24.19
2019-06-08T22:03:55.934Z,24.18
2019-06-08T22:06:20.746Z,24.18
2019-06-08T22:08:48.130Z,24.17
2019-06-08T22:11:12.757Z,24.17
2019-06-08T22:13:38.804Z,24.17
2019-06-08T22:16:07.738Z,24.17
2019-06-08T22:18:30.792Z,24.16
2019-06-08T22:20:59.440Z,24.15
2019-06-08T22:23:22.799Z,24.15
2019-06-08T22:25:48.813Z,24.15
2019-06-08T22:28:14.808Z,24.15
2019-06-08T22:30:43.123Z,24.15
2019-06-08T22:33:06.820Z,24.14
2019-06-08T22:35:32.862Z,24.14
2019-06-08T22:38:00.779Z,24.13
2019-06-08T22:40:24.853Z,24.14
2019-06-08T22:42:50.867Z,24.13
2019-06-08T22:45:17.652Z,24.13
2019-06-08T22:47:42.877Z,24.13
2019-06-08T22:50:08.889Z,24.13
2019-06-08T22:52:37.311Z,24.13
2019-06-08T22:55:05.287Z,24.13
2019-06-08T22:57:27.819Z,24.12
2019-06-08T22:59:54.258Z,24.12
2019-06-08T23:02:18.912Z,24.12
2019-06-08T23:04:44.898Z,24.12
2019-06-08T23:07:25.491Z,24.12
2019-06-08T23:09:37.391Z,24.12
2019-06-08T23:12:04.719Z,24.12
2019-06-08T23:14:28.931Z,24.11
2019-06-08T23:16:54.955Z,24.11
2019-06-08T23:19:20.967Z,24.11
2019-06-08T23:21:47.504Z,24.11
2019-06-08T23:24:12.977Z,24.11
2019-06-08T23:26:38.976Z,24.10
2019-06-08T23:29:07.227Z,24.11
2019-06-08T23:31:30.998Z,24.11
2019-06-08T23:33:59.709Z,24.11
2019-06-08T23:36:46.023Z,24.10
2019-06-08T23:38:49.024Z,24.10
2019-06-08T23:41:17.550Z,24.10
2019-06-08T23:43:41.043Z,24.10
2019-06-08T23:46:08.152Z,24.10
2019-06-08T23:48:33.050Z,24.10
2019-06-08T23:51:00.452Z,24.10
2019-06-08T23:53:27.397Z,24.10
2019-06-08T23:55:51.083Z,24.10
2019-06-08T23:58:17.693Z,24.10
